sensor_id;sensor_type;location;lat;lon;timestamp;temperature;humidity
37446;DHT22;23307;51.136;14.942;2024-01-11T00:00:20;-5.20;99.90
37446;DHT22;23307;51.136;14.942;2024-01-11T00:02:46;-5.20;99.90
37446;DHT22;23307;51.136;14.942;2024-01-11T00:05:11;-5.20;99.90
37446;DHT22;23307;51.136;14.942;2024-01-11T00:07:37;-5.20;99.90
37446;DHT22;23307;51.136;14.942;2024-01-11T00:10:03;-5.20;99.90
37446;DHT22;23307;51.136;14.942;2024-01-11T00:12:29;-5.30;99.90
37446;DHT22;23307;51.136;14.942;2024-01-11T00:14:54;-5.20;99.90
37446;DHT22;23307;51.136;14.942;2024-01-11T00:17:20;-5.30;99.90
37446;DHT22;23307;51.136;14.942;2024-01-11T00:19:45;-5.20;99.90
37446;DHT22;23307;51.136;14.942;2024-01-11T00:22:11;-5.30;99.90
37446;DHT22;23307;51.136;14.942;2024-01-11T00:24:36;-5.20;99.90
37446;DHT22;23307;51.136;14.942;2024-01-11T00:27:02;-5.30;99.90
37446;DHT22;23307;51.136;14.942;2024-01-11T00:29:27;-5.30;99.90
37446;DHT22;23307;51.136;14.942;2024-01-11T00:31:54;-5.30;99.90
37446;DHT22;23307;51.136;14.942;2024-01-11T00:34:19;-5.30;99.90
37446;DHT22;23307;51.136;14.942;2024-01-11T00:36:45;-5.40;99.90
37446;DHT22;23307;51.136;14.942;2024-01-11T00:39:10;-5.40;99.90
37446;DHT22;23307;51.136;14.942;2024-01-11T00:41:37;-5.40;99.90
37446;DHT22;23307;51.136;14.942;2024-01-11T00:44:02;-5.40;99.90
37446;DHT22;23307;51.136;14.942;2024-01-11T00:46:28;-5.50;99.90
37446;DHT22;23307;51.136;14.942;2024-01-11T00:48:53;-5.50;99.90
37446;DHT22;23307;51.136;14.942;2024-01-11T00:51:19;-5.50;99.90
37446;DHT22;23307;51.136;14.942;2024-01-11T00:53:45;-5.50;99.90
37446;DHT22;23307;51.136;14.942;2024-01-11T00:56:19;-5.50;99.90
37446;DHT22;23307;51.136;14.942;2024-01-11T00:58:46;-5.50;99.90
37446;DHT22;23307;51.136;14.942;2024-01-11T01:01:12;-5.50;99.90
37446;DHT22;23307;51.136;14.942;2024-01-11T01:03:38;-5.50;99.90
37446;DHT22;23307;51.136;14.942;2024-01-11T01:06:04;-5.50;99.90
37446;DHT22;23307;51.136;14.942;2024-01-11T01:08:30;-5.50;99.90
37446;DHT22;23307;51.136;14.942;2024-01-11T01:10:56;-5.60;99.90
37446;DHT22;23307;51.136;14.942;2024-01-11T01:13:21;-5.60;99.90
37446;DHT22;23307;51.136;14.942;2024-01-11T01:15:47;-5.60;99.90
37446;DHT22;23307;51.136;14.942;2024-01-11T01:18:12;-5.60;99.90
37446;DHT22;23307;51.136;14.942;2024-01-11T01:20:38;-5.60;99.90
37446;DHT22;23307;51.136;14.942;2024-01-11T01:23:03;-5.60;99.90
37446;DHT22;23307;51.136;14.942;2024-01-11T01:25:29;-5.60;99.90
37446;DHT22;23307;51.136;14.942;2024-01-11T01:27:55;-5.60;99.90
37446;DHT22;23307;51.136;14.942;2024-01-11T01:30:21;-5.60;99.90
37446;DHT22;23307;51.136;14.942;2024-01-11T01:32:47;-5.60;99.90
37446;DHT22;23307;51.136;14.942;2024-01-11T01:35:12;-5.60;99.90
37446;DHT22;23307;51.136;14.942;2024-01-11T01:37:38;-5.60;99.90
37446;DHT22;23307;51.136;14.942;2024-01-11T01:40:04;-5.60;99.90
37446;DHT22;23307;51.136;14.942;2024-01-11T01:42:30;-5.60;99.90
37446;DHT22;23307;51.136;14.942;2024-01-11T01:44:56;-5.60;99.90
37446;DHT22;23307;51.136;14.942;2024-01-11T01:47:21;-5.60;99.90
37446;DHT22;23307;51.136;14.942;2024-01-11T01:49:48;-5.60;99.90
37446;DHT22;23307;51.136;14.942;2024-01-11T01:52:15;-5.70;99.90
37446;DHT22;23307;51.136;14.942;2024-01-11T01:54:41;-5.70;99.90
37446;DHT22;23307;51.136;14.942;2024-01-11T01:57:08;-5.60;99.90
37446;DHT22;23307;51.136;14.942;2024-01-11T01:59:36;-5.60;99.90
37446;DHT22;23307;51.136;14.942;2024-01-11T02:02:03;-5.60;99.90
37446;DHT22;23307;51.136;14.942;2024-01-11T02:04:29;-5.70;99.90
37446;DHT22;23307;51.136;14.942;2024-01-11T02:06:55;-5.70;99.90
37446;DHT22;23307;51.136;14.942;2024-01-11T02:09:22;-5.70;99.90
37446;DHT22;23307;51.136;14.942;2024-01-11T02:11:48;-5.70;99.90
37446;DHT22;23307;51.136;14.942;2024-01-11T02:14:13;-5.70;99.90
37446;DHT22;23307;51.136;14.942;2024-01-11T02:16:39;-5.70;99.90
37446;DHT22;23307;51.136;14.942;2024-01-11T02:19:06;-5.70;99.90
37446;DHT22;23307;51.136;14.942;2024-01-11T02:21:33;-5.80;99.90
37446;DHT22;23307;51.136;14.942;2024-01-11T02:24:05;-5.70;99.90
37446;DHT22;23307;51.136;14.942;2024-01-11T02:26:31;-5.70;99.90
37446;DHT22;23307;51.136;14.942;2024-01-11T02:28:56;-5.70;99.90
37446;DHT22;23307;51.136;14.942;2024-01-11T02:31:22;-5.70;99.90
37446;DHT22;23307;51.136;14.942;2024-01-11T02:33:49;-5.70;99.90
37446;DHT22;23307;51.136;14.942;2024-01-11T02:36:15;-5.70;99.90
37446;DHT22;23307;51.136;14.942;2024-01-11T02:38:41;-5.70;99.90
37446;DHT22;23307;51.136;14.942;2024-01-11T02:41:07;-5.80;99.90
37446;DHT22;23307;51.136;14.942;2024-01-11T02:43:33;-5.80;99.90
37446;DHT22;23307;51.136;14.942;2024-01-11T02:46:01;-5.80;99.90
37446;DHT22;23307;51.136;14.942;2024-01-11T02:48:28;-5.70;99.90
37446;DHT22;23307;51.136;14.942;2024-01-11T02:50:54;-5.70;99.90
37446;DHT22;23307;51.136;14.942;2024-01-11T02:53:20;-5.70;99.90
37446;DHT22;23307;51.136;14.942;2024-01-11T02:55:45;-5.70;99.90
37446;DHT22;23307;51.136;14.942;2024-01-11T02:58:11;-5.70;99.90
37446;DHT22;23307;51.136;14.942;2024-01-11T03:00:36;-5.70;99.90
37446;DHT22;23307;51.136;14.942;2024-01-11T03:03:02;-5.70;99.90
37446;DHT22;23307;51.136;14.942;2024-01-11T03:05:28;-5.70;99.90
37446;DHT22;23307;51.136;14.942;2024-01-11T03:07:53;-5.70;99.90
37446;DHT22;23307;51.136;14.942;2024-01-11T03:10:19;-5.70;99.90
37446;DHT22;23307;51.136;14.942;2024-01-11T03:12:44;-5.70;99.90
37446;DHT22;23307;51.136;14.942;2024-01-11T03:15:10;-5.60;99.90
37446;DHT22;23307;51.136;14.942;2024-01-11T03:17:35;-5.60;99.90
37446;DHT22;23307;51.136;14.942;2024-01-11T03:20:01;-5.60;99.90
37446;DHT22;23307;51.136;14.942;2024-01-11T03:22:28;-5.60;99.90
37446;DHT22;23307;51.136;14.942;2024-01-11T03:24:54;-5.60;99.90
37446;DHT22;23307;51.136;14.942;2024-01-11T03:27:19;-5.60;99.90
37446;DHT22;23307;51.136;14.942;2024-01-11T03:29:45;-5.50;99.90
37446;DHT22;23307;51.136;14.942;2024-01-11T03:32:10;-5.50;99.90
37446;DHT22;23307;51.136;14.942;2024-01-11T03:34:39;-5.50;99.90
37446;DHT22;23307;51.136;14.942;2024-01-11T03:37:04;-5.50;99.90
37446;DHT22;23307;51.136;14.942;2024-01-11T03:39:30;-5.40;99.90
37446;DHT22;23307;51.136;14.942;2024-01-11T03:41:56;-5.40;99.90
37446;DHT22;23307;51.136;14.942;2024-01-11T03:44:22;-5.30;99.90
37446;DHT22;23307;51.136;14.942;2024-01-11T03:46:48;-5.30;99.90
37446;DHT22;23307;51.136;14.942;2024-01-11T03:49:13;-5.30;99.90
37446;DHT22;23307;51.136;14.942;2024-01-11T03:51:39;-5.20;99.90
37446;DHT22;23307;51.136;14.942;2024-01-11T03:54:05;-5.20;99.90
37446;DHT22;23307;51.136;14.942;2024-01-11T03:56:30;-5.20;99.90
37446;DHT22;23307;51.136;14.942;2024-01-11T03:58:56;-5.20;99.90
37446;DHT22;23307;51.136;14.942;2024-01-11T04:01:22;-5.20;99.90
37446;DHT22;23307;51.136;14.942;2024-01-11T04:03:47;-5.20;99.90
37446;DHT22;23307;51.136;14.942;2024-01-11T04:06:22;-5.20;99.90
37446;DHT22;23307;51.136;14.942;2024-01-11T04:08:49;-5.20;99.90
37446;DHT22;23307;51.136;14.942;2024-01-11T04:11:16;-5.20;99.90
37446;DHT22;23307;51.136;14.942;2024-01-11T04:13:41;-5.30;99.90
37446;DHT22;23307;51.136;14.942;2024-01-11T04:16:07;-5.20;99.90
37446;DHT22;23307;51.136;14.942;2024-01-11T04:18:33;-5.20;99.90
37446;DHT22;23307;51.136;14.942;2024-01-11T04:20:58;-5.10;99.90
37446;DHT22;23307;51.136;14.942;2024-01-11T04:23:24;-5.10;99.90
37446;DHT22;23307;51.136;14.942;2024-01-11T04:25:50;-5.10;99.90
37446;DHT22;23307;51.136;14.942;2024-01-11T04:28:18;-5.10;99.90
37446;DHT22;23307;51.136;14.942;2024-01-11T04:30:44;-5.00;99.90
37446;DHT22;23307;51.136;14.942;2024-01-11T04:33:10;-5.00;99.90
37446;DHT22;23307;51.136;14.942;2024-01-11T04:35:36;-5.00;99.90
37446;DHT22;23307;51.136;14.942;2024-01-11T04:38:01;-4.90;99.90
37446;DHT22;23307;51.136;14.942;2024-01-11T04:40:27;-4.90;99.90
37446;DHT22;23307;51.136;14.942;2024-01-11T04:42:53;-4.90;99.90
37446;DHT22;23307;51.136;14.942;2024-01-11T04:45:18;-4.90;99.90
37446;DHT22;23307;51.136;14.942;2024-01-11T04:47:44;-4.90;99.90
37446;DHT22;23307;51.136;14.942;2024-01-11T04:50:09;-5.00;99.90
37446;DHT22;23307;51.136;14.942;2024-01-11T04:52:35;-5.00;99.90
37446;DHT22;23307;51.136;14.942;2024-01-11T04:55:01;-5.00;99.90
37446;DHT22;23307;51.136;14.942;2024-01-11T04:57:26;-5.00;99.90
37446;DHT22;23307;51.136;14.942;2024-01-11T04:59:51;-5.10;99.90
37446;DHT22;23307;51.136;14.942;2024-01-11T05:02:20;-5.00;99.90
37446;DHT22;23307;51.136;14.942;2024-01-11T05:04:46;-5.00;99.90
37446;DHT22;23307;51.136;14.942;2024-01-11T05:07:11;-5.00;99.90
37446;DHT22;23307;51.136;14.942;2024-01-11T05:09:37;-5.00;99.90
37446;DHT22;23307;51.136;14.942;2024-01-11T05:12:03;-5.00;99.90
37446;DHT22;23307;51.136;14.942;2024-01-11T05:14:28;-5.00;99.90
37446;DHT22;23307;51.136;14.942;2024-01-11T05:16:54;-5.00;99.90
37446;DHT22;23307;51.136;14.942;2024-01-11T05:19:19;-4.90;99.90
37446;DHT22;23307;51.136;14.942;2024-01-11T05:21:45;-4.80;99.90
37446;DHT22;23307;51.136;14.942;2024-01-11T05:24:10;-4.80;99.90
37446;DHT22;23307;51.136;14.942;2024-01-11T05:26:36;-4.80;99.90
37446;DHT22;23307;51.136;14.942;2024-01-11T05:29:01;-4.80;99.90
37446;DHT22;23307;51.136;14.942;2024-01-11T05:31:29;-4.70;99.90
37446;DHT22;23307;51.136;14.942;2024-01-11T05:33:55;-4.70;99.90
37446;DHT22;23307;51.136;14.942;2024-01-11T05:36:20;-4.70;99.90
37446;DHT22;23307;51.136;14.942;2024-01-11T05:38:47;-4.80;99.90
37446;DHT22;23307;51.136;14.942;2024-01-11T05:41:12;-4.80;99.90
37446;DHT22;23307;51.136;14.942;2024-01-11T05:43:38;-4.80;99.90
37446;DHT22;23307;51.136;14.942;2024-01-11T05:46:08;-4.80;99.90
37446;DHT22;23307;51.136;14.942;2024-01-11T05:48:33;-4.70;99.90
37446;DHT22;23307;51.136;14.942;2024-01-11T05:50:59;-4.80;99.90
37446;DHT22;23307;51.136;14.942;2024-01-11T05:53:25;-4.80;99.90
37446;DHT22;23307;51.136;14.942;2024-01-11T05:55:52;-4.80;99.90
37446;DHT22;23307;51.136;14.942;2024-01-11T05:58:18;-4.90;99.90
37446;DHT22;23307;51.136;14.942;2024-01-11T06:00:44;-4.90;99.90
37446;DHT22;23307;51.136;14.942;2024-01-11T06:03:12;-4.90;99.90
37446;DHT22;23307;51.136;14.942;2024-01-11T06:05:37;-4.90;99.90
37446;DHT22;23307;51.136;14.942;2024-01-11T06:08:03;-4.90;99.90
37446;DHT22;23307;51.136;14.942;2024-01-11T06:10:29;-4.90;99.90
37446;DHT22;23307;51.136;14.942;2024-01-11T06:12:56;-4.80;99.90
37446;DHT22;23307;51.136;14.942;2024-01-11T06:15:22;-4.70;99.90
37446;DHT22;23307;51.136;14.942;2024-01-11T06:17:47;-4.60;99.90
37446;DHT22;23307;51.136;14.942;2024-01-11T06:20:13;-4.50;99.90
37446;DHT22;23307;51.136;14.942;2024-01-11T06:22:38;-4.40;99.90
37446;DHT22;23307;51.136;14.942;2024-01-11T06:25:04;-4.30;99.90
37446;DHT22;23307;51.136;14.942;2024-01-11T06:27:30;-4.30;99.90
37446;DHT22;23307;51.136;14.942;2024-01-11T06:29:55;-4.30;99.90
37446;DHT22;23307;51.136;14.942;2024-01-11T06:32:21;-4.30;99.90
37446;DHT22;23307;51.136;14.942;2024-01-11T06:34:47;-4.30;99.90
37446;DHT22;23307;51.136;14.942;2024-01-11T06:37:13;-4.30;99.90
37446;DHT22;23307;51.136;14.942;2024-01-11T06:39:38;-4.30;99.90
37446;DHT22;23307;51.136;14.942;2024-01-11T06:42:04;-4.30;99.90
37446;DHT22;23307;51.136;14.942;2024-01-11T06:44:30;-4.30;99.90
37446;DHT22;23307;51.136;14.942;2024-01-11T06:46:56;-4.20;99.90
37446;DHT22;23307;51.136;14.942;2024-01-11T06:49:21;-4.10;99.90
37446;DHT22;23307;51.136;14.942;2024-01-11T06:51:47;-4.10;99.90
37446;DHT22;23307;51.136;14.942;2024-01-11T06:54:12;-4.00;99.90
37446;DHT22;23307;51.136;14.942;2024-01-11T06:56:38;-3.90;99.90
37446;DHT22;23307;51.136;14.942;2024-01-11T06:59:03;-3.90;99.90
37446;DHT22;23307;51.136;14.942;2024-01-11T07:01:29;-3.80;99.90
37446;DHT22;23307;51.136;14.942;2024-01-11T07:03:54;-3.70;99.90
37446;DHT22;23307;51.136;14.942;2024-01-11T07:06:20;-3.70;99.90
37446;DHT22;23307;51.136;14.942;2024-01-11T07:08:46;-3.60;99.90
37446;DHT22;23307;51.136;14.942;2024-01-11T07:11:11;-3.70;99.90
37446;DHT22;23307;51.136;14.942;2024-01-11T07:13:37;-3.60;99.90
37446;DHT22;23307;51.136;14.942;2024-01-11T07:16:03;-3.60;99.90
37446;DHT22;23307;51.136;14.942;2024-01-11T07:18:29;-3.50;99.90
37446;DHT22;23307;51.136;14.942;2024-01-11T07:20:57;-3.50;99.90
37446;DHT22;23307;51.136;14.942;2024-01-11T07:23:23;-3.40;99.90
37446;DHT22;23307;51.136;14.942;2024-01-11T07:25:49;-3.30;99.90
37446;DHT22;23307;51.136;14.942;2024-01-11T07:28:15;-3.30;99.90
37446;DHT22;23307;51.136;14.942;2024-01-11T07:30:42;-3.20;99.90
37446;DHT22;23307;51.136;14.942;2024-01-11T07:33:08;-3.20;99.90
37446;DHT22;23307;51.136;14.942;2024-01-11T07:35:34;-3.10;99.90
37446;DHT22;23307;51.136;14.942;2024-01-11T07:38:00;-3.10;99.90
37446;DHT22;23307;51.136;14.942;2024-01-11T07:40:26;-3.10;99.90
37446;DHT22;23307;51.136;14.942;2024-01-11T07:42:51;-3.10;99.90
37446;DHT22;23307;51.136;14.942;2024-01-11T07:45:17;-3.10;99.90
37446;DHT22;23307;51.136;14.942;2024-01-11T07:47:42;-3.10;99.90
37446;DHT22;23307;51.136;14.942;2024-01-11T07:50:09;-3.00;99.90
37446;DHT22;23307;51.136;14.942;2024-01-11T07:52:38;-3.00;99.90
37446;DHT22;23307;51.136;14.942;2024-01-11T07:55:06;-3.00;99.90
37446;DHT22;23307;51.136;14.942;2024-01-11T07:57:36;-3.00;99.90
37446;DHT22;23307;51.136;14.942;2024-01-11T08:00:03;-2.90;99.90
37446;DHT22;23307;51.136;14.942;2024-01-11T08:02:29;-2.90;99.90
37446;DHT22;23307;51.136;14.942;2024-01-11T08:04:55;-2.90;99.90
37446;DHT22;23307;51.136;14.942;2024-01-11T08:07:21;-2.80;99.90
37446;DHT22;23307;51.136;14.942;2024-01-11T08:09:47;-2.70;99.90
37446;DHT22;23307;51.136;14.942;2024-01-11T08:12:14;-2.70;99.90
37446;DHT22;23307;51.136;14.942;2024-01-11T08:14:39;-2.60;99.90
37446;DHT22;23307;51.136;14.942;2024-01-11T08:17:07;-2.50;99.90
37446;DHT22;23307;51.136;14.942;2024-01-11T08:19:33;-2.50;99.90
37446;DHT22;23307;51.136;14.942;2024-01-11T08:21:59;-2.40;99.90
37446;DHT22;23307;51.136;14.942;2024-01-11T08:24:25;-2.40;99.90
37446;DHT22;23307;51.136;14.942;2024-01-11T08:26:51;-2.40;99.90
37446;DHT22;23307;51.136;14.942;2024-01-11T08:29:16;-2.30;99.90
37446;DHT22;23307;51.136;14.942;2024-01-11T08:31:44;-2.40;99.90
37446;DHT22;23307;51.136;14.942;2024-01-11T08:34:10;-2.30;99.90
37446;DHT22;23307;51.136;14.942;2024-01-11T08:36:36;-2.30;99.90
37446;DHT22;23307;51.136;14.942;2024-01-11T08:39:07;-2.20;99.90
37446;DHT22;23307;51.136;14.942;2024-01-11T08:41:36;-2.30;99.90
37446;DHT22;23307;51.136;14.942;2024-01-11T08:44:03;-2.20;99.90
37446;DHT22;23307;51.136;14.942;2024-01-11T08:46:31;-2.20;99.90
37446;DHT22;23307;51.136;14.942;2024-01-11T08:48:58;-2.20;99.90
37446;DHT22;23307;51.136;14.942;2024-01-11T08:51:24;-2.20;99.90
37446;DHT22;23307;51.136;14.942;2024-01-11T08:53:50;-2.20;99.90
37446;DHT22;23307;51.136;14.942;2024-01-11T08:56:15;-2.20;99.90
37446;DHT22;23307;51.136;14.942;2024-01-11T08:58:42;-2.10;99.90
37446;DHT22;23307;51.136;14.942;2024-01-11T09:01:08;-2.10;99.90
37446;DHT22;23307;51.136;14.942;2024-01-11T09:03:36;-2.10;99.90
37446;DHT22;23307;51.136;14.942;2024-01-11T09:06:03;-2.20;99.90
37446;DHT22;23307;51.136;14.942;2024-01-11T09:08:29;-2.20;99.90
37446;DHT22;23307;51.136;14.942;2024-01-11T09:10:58;-2.10;99.90
37446;DHT22;23307;51.136;14.942;2024-01-11T09:13:24;-2.10;99.90
37446;DHT22;23307;51.136;14.942;2024-01-11T09:15:51;-2.10;99.90
37446;DHT22;23307;51.136;14.942;2024-01-11T09:18:17;-2.00;99.90
37446;DHT22;23307;51.136;14.942;2024-01-11T09:20:43;-2.00;99.90
37446;DHT22;23307;51.136;14.942;2024-01-11T09:23:08;-2.00;99.90
37446;DHT22;23307;51.136;14.942;2024-01-11T09:25:34;-1.90;99.90
37446;DHT22;23307;51.136;14.942;2024-01-11T09:28:00;-2.00;99.90
37446;DHT22;23307;51.136;14.942;2024-01-11T09:30:25;-1.90;99.90
37446;DHT22;23307;51.136;14.942;2024-01-11T09:32:52;-1.80;99.90
37446;DHT22;23307;51.136;14.942;2024-01-11T09:35:17;-1.80;99.90
37446;DHT22;23307;51.136;14.942;2024-01-11T09:37:43;-1.70;99.90
37446;DHT22;23307;51.136;14.942;2024-01-11T09:40:11;-1.70;99.90
37446;DHT22;23307;51.136;14.942;2024-01-11T09:42:38;-1.60;99.90
37446;DHT22;23307;51.136;14.942;2024-01-11T09:45:12;-1.60;99.90
37446;DHT22;23307;51.136;14.942;2024-01-11T09:47:39;-1.60;99.90
37446;DHT22;23307;51.136;14.942;2024-01-11T09:50:08;-1.60;99.90
37446;DHT22;23307;51.136;14.942;2024-01-11T09:52:34;-1.50;99.90
37446;DHT22;23307;51.136;14.942;2024-01-11T09:55:02;-1.50;99.90
37446;DHT22;23307;51.136;14.942;2024-01-11T09:57:31;-1.50;99.90
37446;DHT22;23307;51.136;14.942;2024-01-11T10:00:04;-1.40;99.90
37446;DHT22;23307;51.136;14.942;2024-01-11T10:02:32;-1.40;99.90
37446;DHT22;23307;51.136;14.942;2024-01-11T10:04:58;-1.40;99.90
37446;DHT22;23307;51.136;14.942;2024-01-11T10:07:24;-1.40;99.90
37446;DHT22;23307;51.136;14.942;2024-01-11T10:09:51;-1.40;99.90
37446;DHT22;23307;51.136;14.942;2024-01-11T10:12:20;-1.30;99.90
37446;DHT22;23307;51.136;14.942;2024-01-11T10:14:48;-1.30;99.90
37446;DHT22;23307;51.136;14.942;2024-01-11T10:17:14;-1.30;99.90
37446;DHT22;23307;51.136;14.942;2024-01-11T10:19:39;-1.20;99.90
37446;DHT22;23307;51.136;14.942;2024-01-11T10:22:05;-1.20;99.90
37446;DHT22;23307;51.136;14.942;2024-01-11T10:24:31;-1.10;99.90
37446;DHT22;23307;51.136;14.942;2024-01-11T10:26:56;-1.10;99.90
37446;DHT22;23307;51.136;14.942;2024-01-11T10:29:22;-1.10;99.90
37446;DHT22;23307;51.136;14.942;2024-01-11T10:31:49;-1.00;99.90
37446;DHT22;23307;51.136;14.942;2024-01-11T10:34:16;-1.00;99.90
37446;DHT22;23307;51.136;14.942;2024-01-11T10:36:41;-0.80;99.90
37446;DHT22;23307;51.136;14.942;2024-01-11T10:39:08;-0.60;99.90
37446;DHT22;23307;51.136;14.942;2024-01-11T10:41:39;-0.60;99.90
37446;DHT22;23307;51.136;14.942;2024-01-11T10:44:18;-0.60;99.90
37446;DHT22;23307;51.136;14.942;2024-01-11T10:46:46;-0.70;99.90
37446;DHT22;23307;51.136;14.942;2024-01-11T10:49:18;-0.70;99.90
37446;DHT22;23307;51.136;14.942;2024-01-11T10:52:00;-0.60;99.90
37446;DHT22;23307;51.136;14.942;2024-01-11T10:54:27;-0.50;99.90
37446;DHT22;23307;51.136;14.942;2024-01-11T10:56:54;-0.50;99.90
37446;DHT22;23307;51.136;14.942;2024-01-11T10:59:22;-0.50;99.90
37446;DHT22;23307;51.136;14.942;2024-01-11T11:01:54;-0.60;99.90
37446;DHT22;23307;51.136;14.942;2024-01-11T11:04:22;-0.60;99.90
37446;DHT22;23307;51.136;14.942;2024-01-11T11:06:50;-0.70;99.90
37446;DHT22;23307;51.136;14.942;2024-01-11T11:09:17;-0.70;99.90
37446;DHT22;23307;51.136;14.942;2024-01-11T11:11:45;-0.70;99.90
37446;DHT22;23307;51.136;14.942;2024-01-11T11:14:13;-0.80;99.90
37446;DHT22;23307;51.136;14.942;2024-01-11T11:16:39;-0.80;99.90
37446;DHT22;23307;51.136;14.942;2024-01-11T11:19:06;-0.80;99.90
37446;DHT22;23307;51.136;14.942;2024-01-11T11:21:32;-0.70;99.90
37446;DHT22;23307;51.136;14.942;2024-01-11T11:23:57;-0.60;99.90
37446;DHT22;23307;51.136;14.942;2024-01-11T11:26:25;-0.60;99.90
37446;DHT22;23307;51.136;14.942;2024-01-11T11:28:51;-0.60;99.90
37446;DHT22;23307;51.136;14.942;2024-01-11T11:31:41;-0.60;99.90
37446;DHT22;23307;51.136;14.942;2024-01-11T11:34:07;-0.60;99.90
37446;DHT22;23307;51.136;14.942;2024-01-11T11:36:36;-0.50;99.90
37446;DHT22;23307;51.136;14.942;2024-01-11T11:39:02;-0.60;99.90
37446;DHT22;23307;51.136;14.942;2024-01-11T11:41:30;-0.60;99.90
37446;DHT22;23307;51.136;14.942;2024-01-11T11:44:01;-0.70;99.90
37446;DHT22;23307;51.136;14.942;2024-01-11T11:46:27;-0.60;99.90
37446;DHT22;23307;51.136;14.942;2024-01-11T11:48:53;-0.50;99.90
37446;DHT22;23307;51.136;14.942;2024-01-11T11:51:20;-0.50;99.90
37446;DHT22;23307;51.136;14.942;2024-01-11T11:53:47;-0.40;99.90
37446;DHT22;23307;51.136;14.942;2024-01-11T11:56:14;-0.30;99.90
37446;DHT22;23307;51.136;14.942;2024-01-11T11:58:42;-0.20;99.90
37446;DHT22;23307;51.136;14.942;2024-01-11T12:01:08;-0.20;99.90
37446;DHT22;23307;51.136;14.942;2024-01-11T12:03:41;-0.20;99.90
37446;DHT22;23307;51.136;14.942;2024-01-11T12:06:08;-0.20;99.90
37446;DHT22;23307;51.136;14.942;2024-01-11T12:08:36;-0.20;99.90
37446;DHT22;23307;51.136;14.942;2024-01-11T12:11:01;-0.10;99.90
37446;DHT22;23307;51.136;14.942;2024-01-11T12:13:28;-0.20;99.90
37446;DHT22;23307;51.136;14.942;2024-01-11T12:15:53;-0.40;99.90
37446;DHT22;23307;51.136;14.942;2024-01-11T12:18:19;-0.40;99.90
37446;DHT22;23307;51.136;14.942;2024-01-11T12:20:45;-0.30;99.90
37446;DHT22;23307;51.136;14.942;2024-01-11T12:23:10;-0.40;99.90
37446;DHT22;23307;51.136;14.942;2024-01-11T12:25:36;-0.30;99.90
37446;DHT22;23307;51.136;14.942;2024-01-11T12:28:02;-0.40;99.90
37446;DHT22;23307;51.136;14.942;2024-01-11T12:30:28;-0.50;99.90
37446;DHT22;23307;51.136;14.942;2024-01-11T12:32:56;-0.50;99.90
37446;DHT22;23307;51.136;14.942;2024-01-11T12:35:22;-0.40;99.90
37446;DHT22;23307;51.136;14.942;2024-01-11T12:37:55;-0.40;99.90
37446;DHT22;23307;51.136;14.942;2024-01-11T12:40:21;-0.50;99.90
37446;DHT22;23307;51.136;14.942;2024-01-11T12:42:47;-0.50;99.90
37446;DHT22;23307;51.136;14.942;2024-01-11T12:45:15;-0.50;99.90
37446;DHT22;23307;51.136;14.942;2024-01-11T12:47:41;-0.60;99.90
37446;DHT22;23307;51.136;14.942;2024-01-11T12:50:07;-0.60;99.90
37446;DHT22;23307;51.136;14.942;2024-01-11T12:52:33;-0.50;99.90
37446;DHT22;23307;51.136;14.942;2024-01-11T12:54:58;-0.50;99.90
37446;DHT22;23307;51.136;14.942;2024-01-11T12:57:25;-0.50;99.90
37446;DHT22;23307;51.136;14.942;2024-01-11T12:59:51;-0.50;99.90
37446;DHT22;23307;51.136;14.942;2024-01-11T13:02:16;-0.50;99.90
37446;DHT22;23307;51.136;14.942;2024-01-11T13:04:45;-0.60;99.90
37446;DHT22;23307;51.136;14.942;2024-01-11T13:07:12;-0.60;99.90
37446;DHT22;23307;51.136;14.942;2024-01-11T13:09:38;-0.50;99.70
37446;DHT22;23307;51.136;14.942;2024-01-11T13:12:05;-0.40;99.50
37446;DHT22;23307;51.136;14.942;2024-01-11T13:14:30;-0.30;99.40
37446;DHT22;23307;51.136;14.942;2024-01-11T13:16:56;-0.10;99.40
37446;DHT22;23307;51.136;14.942;2024-01-11T13:19:23;0.10;99.40
37446;DHT22;23307;51.136;14.942;2024-01-11T13:21:49;0.10;98.60
37446;DHT22;23307;51.136;14.942;2024-01-11T13:24:14;0.10;98.30
37446;DHT22;23307;51.136;14.942;2024-01-11T13:26:40;0.00;98.30
37446;DHT22;23307;51.136;14.942;2024-01-11T13:29:05;0.00;98.60
37446;DHT22;23307;51.136;14.942;2024-01-11T13:31:32;0.10;98.80
37446;DHT22;23307;51.136;14.942;2024-01-11T13:33:58;0.10;99.20
37446;DHT22;23307;51.136;14.942;2024-01-11T13:36:24;0.10;98.70
37446;DHT22;23307;51.136;14.942;2024-01-11T13:38:50;0.10;98.80
37446;DHT22;23307;51.136;14.942;2024-01-11T13:41:16;0.00;98.80
37446;DHT22;23307;51.136;14.942;2024-01-11T13:43:42;-0.10;98.80
37446;DHT22;23307;51.136;14.942;2024-01-11T13:46:08;-0.10;98.60
37446;DHT22;23307;51.136;14.942;2024-01-11T13:48:34;-0.30;98.40
37446;DHT22;23307;51.136;14.942;2024-01-11T13:51:01;-0.50;98.80
37446;DHT22;23307;51.136;14.942;2024-01-11T13:53:29;-0.60;99.00
37446;DHT22;23307;51.136;14.942;2024-01-11T13:55:54;-0.70;99.10
37446;DHT22;23307;51.136;14.942;2024-01-11T13:58:21;-0.80;99.00
37446;DHT22;23307;51.136;14.942;2024-01-11T14:00:46;-0.90;99.20
37446;DHT22;23307;51.136;14.942;2024-01-11T14:03:12;-1.00;99.20
37446;DHT22;23307;51.136;14.942;2024-01-11T14:05:38;-1.10;99.50
37446;DHT22;23307;51.136;14.942;2024-01-11T14:08:04;-1.10;99.80
37446;DHT22;23307;51.136;14.942;2024-01-11T14:10:32;-1.20;99.90
37446;DHT22;23307;51.136;14.942;2024-01-11T14:12:59;-1.20;99.90
37446;DHT22;23307;51.136;14.942;2024-01-11T14:15:25;-1.20;99.90
37446;DHT22;23307;51.136;14.942;2024-01-11T14:17:50;-1.30;99.90
37446;DHT22;23307;51.136;14.942;2024-01-11T14:20:16;-1.40;99.90
37446;DHT22;23307;51.136;14.942;2024-01-11T14:22:43;-1.40;99.90
37446;DHT22;23307;51.136;14.942;2024-01-11T14:25:17;-1.40;99.90
37446;DHT22;23307;51.136;14.942;2024-01-11T14:27:43;-1.40;99.90
37446;DHT22;23307;51.136;14.942;2024-01-11T14:30:10;-1.40;99.90
37446;DHT22;23307;51.136;14.942;2024-01-11T14:32:37;-1.40;99.90
37446;DHT22;23307;51.136;14.942;2024-01-11T14:35:03;-1.40;99.90
37446;DHT22;23307;51.136;14.942;2024-01-11T14:37:34;-1.50;99.90
37446;DHT22;23307;51.136;14.942;2024-01-11T14:40:00;-1.50;99.90
37446;DHT22;23307;51.136;14.942;2024-01-11T14:42:27;-1.60;99.90
37446;DHT22;23307;51.136;14.942;2024-01-11T14:44:53;-1.60;99.90
37446;DHT22;23307;51.136;14.942;2024-01-11T14:47:19;-1.70;99.90
37446;DHT22;23307;51.136;14.942;2024-01-11T14:49:45;-1.70;99.90
37446;DHT22;23307;51.136;14.942;2024-01-11T14:52:11;-1.80;99.90
37446;DHT22;23307;51.136;14.942;2024-01-11T14:54:36;-1.80;99.90
37446;DHT22;23307;51.136;14.942;2024-01-11T14:57:02;-1.80;99.90
37446;DHT22;23307;51.136;14.942;2024-01-11T14:59:28;-1.80;99.90
37446;DHT22;23307;51.136;14.942;2024-01-11T15:01:53;-1.80;99.90
37446;DHT22;23307;51.136;14.942;2024-01-11T15:04:19;-1.90;99.90
37446;DHT22;23307;51.136;14.942;2024-01-11T15:06:45;-1.90;99.90
37446;DHT22;23307;51.136;14.942;2024-01-11T15:09:11;-1.90;99.90
37446;DHT22;23307;51.136;14.942;2024-01-11T15:11:40;-1.80;99.90